Time;durP1;ratioP1;P1;durP2;ratioP2;P2;SDS_P1;SDS_P2;PMS_P1;PMS_P2;Temp;Humidity;BMP_temperature;BMP_pressure;BME280_temperature;BME280_humidity;BME280_pressure;Samples;Min_cycle;Max_cycle;Signal;HPM_P1;HPM_P2
2022/01/25 00:32:29;;;;;;;19.88;7.20;;;4.60;99.90;;;;;;20776930;28;20028;-45
2022/01/25 00:42:30;;;;;;;24.63;7.23;;;4.60;99.90;;;;;;20784291;28;20385;-45
2022/01/25 01:02:55;;;;;;;19.30;6.68;;;4.50;99.90;;;;;;20755994;28;20052;-45
2022/01/25 01:43:39;;;;;;;20.20;8.07;;;4.50;99.90;;;;;;20771530;28;20075;-45
2022/01/25 01:53:40;;;;;;;19.40;6.68;;;4.50;99.90;;;;;;20730333;28;20832;-45
2022/01/25 02:03:41;;;;;;;18.77;6.85;;;4.50;99.90;;;;;;20745197;28;20042;-45
2022/01/25 02:13:42;;;;;;;19.60;6.65;;;4.40;99.90;;;;;;20748971;28;20052;-45
2022/01/25 02:23:44;;;;;;;26.40;8.55;;;4.40;99.90;;;;;;20708458;28;20137;-45
2022/01/25 02:33:45;;;;;;;20.38;8.30;;;4.40;99.90;;;;;;20736002;28;20058;-45
2022/01/25 02:43:47;;;;;;;22.10;8.50;;;4.40;99.90;;;;;;20739805;28;20041;-45
2022/01/25 02:53:48;;;;;;;20.17;7.63;;;4.40;99.90;;;;;;20798488;28;20535;-45
2022/01/25 03:03:50;;;;;;;20.38;7.07;;;4.40;99.90;;;;;;20799921;28;20452;-45
2022/01/25 03:13:57;;;;;;;20.75;8.05;;;4.30;99.90;;;;;;20807715;28;20044;-45
2022/01/25 03:23:58;;;;;;;15.27;6.65;;;4.30;99.90;;;;;;20792552;28;20054;-45
2022/01/25 03:33:59;;;;;;;21.58;6.78;;;4.40;99.90;;;;;;20801900;28;20038;-45
2022/01/25 03:44:01;;;;;;;18.02;7.80;;;4.40;99.90;;;;;;20796296;28;20287;-45
2022/01/25 03:54:02;;;;;;;14.82;5.60;;;4.40;99.90;;;;;;20800802;28;20458;-45
2022/01/25 04:04:11;;;;;;;17.15;6.60;;;4.30;99.90;;;;;;20795729;28;20096;-45
2022/01/25 04:14:12;;;;;;;26.80;8.00;;;4.30;99.90;;;;;;20793294;28;20120;-45
2022/01/25 04:55:18;;;;;;;19.55;7.45;;;4.30;99.90;;;;;;20821529;28;20041;-45
2022/01/25 05:05:32;;;;;;;19.13;6.40;;;4.30;99.90;;;;;;20832554;28;20049;-45
2022/01/25 05:25:46;;;;;;;16.15;6.65;;;4.30;99.90;;;;;;20799843;28;20116;-45
2022/01/25 05:35:47;;;;;;;19.55;6.65;;;4.30;99.90;;;;;;20824004;28;20466;-45
2022/01/25 05:55:58;;;;;;;20.92;7.97;;;4.30;99.90;;;;;;20809651;28;20830;-45
2022/01/25 06:05:58;;;;;;;21.95;8.23;;;4.30;99.90;;;;;;20806676;28;20078;-45
2022/01/25 06:15:59;;;;;;;20.63;7.28;;;4.30;99.90;;;;;;20798415;28;20501;-45
2022/01/25 06:26:00;;;;;;;16.20;7.20;;;4.30;99.90;;;;;;20819014;28;20489;-45
2022/01/25 06:36:01;;;;;;;21.27;7.37;;;4.40;99.90;;;;;;20806835;28;20964;-45
2022/01/25 06:46:03;;;;;;;27.90;9.25;;;4.30;99.90;;;;;;20797400;28;20296;-45
2022/01/25 06:56:05;;;;;;;19.15;8.70;;;4.20;99.90;;;;;;20794928;28;20516;-45
2022/01/25 07:06:06;;;;;;;23.08;8.55;;;4.30;99.90;;;;;;20790226;28;20038;-45
2022/01/25 07:16:07;;;;;;;27.83;9.30;;;4.30;99.90;;;;;;20793760;28;20061;-45
2022/01/25 07:26:08;;;;;;;24.65;8.85;;;4.20;99.90;;;;;;20756403;28;20278;-45
2022/01/25 07:36:09;;;;;;;25.35;8.45;;;4.20;99.90;;;;;;20782327;28;20585;-45
2022/01/25 07:46:10;;;;;;;27.43;7.27;;;4.20;99.90;;;;;;20764109;28;20291;-45
2022/01/25 07:56:10;;;;;;;30.35;9.32;;;4.20;99.90;;;;;;20798266;28;20308;-45
2022/01/25 08:06:13;;;;;;;25.85;7.22;;;4.30;99.90;;;;;;20761644;28;20454;-45
2022/01/25 08:16:14;;;;;;;24.20;8.63;;;4.30;99.90;;;;;;20749138;28;20412;-45
2022/01/25 08:26:14;;;;;;;22.52;8.48;;;4.30;99.90;;;;;;20795241;28;20041;-45
2022/01/25 08:36:15;;;;;;;24.92;9.85;;;4.30;99.90;;;;;;20784316;28;20144;-45
2022/01/25 08:46:17;;;;;;;26.02;8.77;;;4.30;99.90;;;;;;20769929;28;20029;-45
2022/01/25 08:56:18;;;;;;;31.73;10.48;;;4.30;99.90;;;;;;20783475;28;20045;-45
2022/01/25 09:06:19;;;;;;;32.05;10.25;;;4.30;99.90;;;;;;20770768;28;20037;-45
2022/01/25 09:16:19;;;;;;;20.65;7.43;;;4.30;99.90;;;;;;20738445;28;20049;-45
2022/01/25 09:26:22;;;;;;;27.05;8.73;;;4.30;99.90;;;;;;20786423;28;20388;-45
2022/01/25 09:36:24;;;;;;;28.02;8.65;;;4.40;99.90;;;;;;20789686;28;20298;-45
2022/01/25 09:46:26;;;;;;;29.85;10.57;;;4.30;99.90;;;;;;20773272;28;20079;-45
2022/01/25 09:56:27;;;;;;;26.42;10.07;;;4.30;99.90;;;;;;20847096;28;20045;-45
2022/01/25 10:06:33;;;;;;;22.83;7.65;;;4.40;99.90;;;;;;20788245;28;20912;-45
2022/01/25 10:16:36;;;;;;;22.52;9.55;;;4.40;99.90;;;;;;20795789;28;20055;-45
2022/01/25 10:26:43;;;;;;;32.15;10.30;;;4.40;99.90;;;;;;20853079;28;20421;-45
2022/01/25 10:36:47;;;;;;;29.23;8.88;;;4.40;99.90;;;;;;20789376;28;20100;-45
2022/01/25 10:46:49;;;;;;;22.20;9.00;;;4.40;99.90;;;;;;20750241;28;20124;-45
2022/01/25 10:56:57;;;;;;;28.13;8.93;;;4.40;99.90;;;;;;20790407;28;20057;-45
2022/01/25 11:07:04;;;;;;;24.67;9.02;;;4.40;99.90;;;;;;20793212;28;20741;-45
2022/01/25 11:17:06;;;;;;;22.52;8.27;;;4.30;99.90;;;;;;20716010;28;20045;-45
2022/01/25 11:27:07;;;;;;;25.40;9.18;;;4.30;99.90;;;;;;20789339;28;20396;-45
2022/01/25 11:37:09;;;;;;;29.85;9.40;;;4.40;99.90;;;;;;20791762;28;20076;-45
2022/01/25 11:47:13;;;;;;;27.25;9.32;;;4.50;99.90;;;;;;20729128;28;20122;-45
2022/01/25 11:57:19;;;;;;;25.23;7.82;;;4.40;99.90;;;;;;20811602;28;20500;-45
2022/01/25 12:07:25;;;;;;;20.88;8.55;;;4.40;99.90;;;;;;20801722;28;20041;-45
2022/01/25 12:17:32;;;;;;;27.77;8.82;;;4.30;99.90;;;;;;20744303;28;20049;-45
2022/01/25 12:27:39;;;;;;;28.08;9.60;;;4.30;99.90;;;;;;20792493;28;20068;-45
2022/01/25 12:37:43;;;;;;;29.37;8.83;;;4.30;99.90;;;;;;20816256;28;20439;-45
2022/01/25 12:47:59;;;;;;;26.10;7.53;;;4.30;99.90;;;;;;20741022;28;20948;-45
2022/01/25 12:58:00;;;;;;;25.70;8.73;;;4.10;99.90;;;;;;20815240;28;20509;-45
2022/01/25 13:09:22;;;;;;;27.75;8.93;;;4.10;99.90;;;;;;20782098;28;20162;-45
2022/01/25 13:19:13;;;;;;;25.15;8.05;;;4.20;99.90;;;;;;20737324;28;20064;-45
2022/01/25 13:39:35;;;;;;;23.60;9.05;;;4.00;99.90;;;;;;20796984;28;20050;-45
2022/01/25 13:49:36;;;;;;;35.53;9.43;;;3.90;99.90;;;;;;20776944;28;20198;-45
2022/01/25 13:59:37;;;;;;;24.88;7.65;;;3.90;99.90;;;;;;20834728;28;20094;-45
2022/01/25 14:09:39;;;;;;;19.88;5.72;;;4.10;99.90;;;;;;20817349;28;20141;-45
2022/01/25 14:30:03;;;;;;;32.80;9.95;;;4.10;99.90;;;;;;20831295;28;20274;-45
2022/01/25 14:40:07;;;;;;;34.22;11.30;;;4.10;99.90;;;;;;20795455;28;20056;-45
2022/01/25 14:50:23;;;;;;;22.10;7.10;;;4.10;99.90;;;;;;20788082;28;20087;-45
2022/01/25 15:00:23;;;;;;;22.60;9.63;;;4.10;99.90;;;;;;20837889;28;20587;-45
2022/01/25 15:10:31;;;;;;;33.30;8.88;;;4.00;99.90;;;;;;20777317;28;20833;-45
2022/01/25 15:20:34;;;;;;;21.58;7.60;;;4.00;99.90;;;;;;20784215;28;20095;-45
2022/01/25 15:30:34;;;;;;;19.70;7.78;;;4.00;99.90;;;;;;20828423;28;20072;-45
2022/01/25 15:40:35;;;;;;;29.73;10.50;;;3.90;99.90;;;;;;20809489;28;20591;-45
2022/01/25 15:50:36;;;;;;;26.63;8.50;;;3.90;99.90;;;;;;20760944;28;20378;-45
2022/01/25 16:00:37;;;;;;;27.33;8.07;;;3.90;99.90;;;;;;20816163;28;20551;-45
2022/01/25 16:10:40;;;;;;;27.73;8.02;;;3.90;99.90;;;;;;20809006;28;20083;-45
2022/01/25 16:20:41;;;;;;;20.75;7.18;;;3.80;99.90;;;;;;20755921;28;20057;-45
2022/01/25 16:30:41;;;;;;;26.70;7.78;;;3.80;99.90;;;;;;20811016;28;20033;-45
2022/01/25 16:40:42;;;;;;;26.60;7.97;;;3.80;99.90;;;;;;20773959;28;20122;-45
2022/01/25 16:50:43;;;;;;;27.50;7.70;;;3.80;99.90;;;;;;20770758;28;20500;-45
2022/01/25 17:00:44;;;;;;;25.53;7.73;;;3.80;99.90;;;;;;20847940;28;20082;-45
2022/01/25 17:10:45;;;;;;;28.83;8.00;;;3.70;99.90;;;;;;20803666;28;20663;-45
2022/01/25 17:20:46;;;;;;;26.98;8.85;;;3.60;99.90;;;;;;20764222;28;20056;-45
2022/01/25 17:30:47;;;;;;;21.20;7.28;;;3.60;99.90;;;;;;20825497;28;20044;-45
2022/01/25 17:40:49;;;;;;;31.30;7.15;;;3.60;99.90;;;;;;20847067;28;20698;-45
2022/01/25 17:50:49;;;;;;;24.45;6.72;;;3.60;99.90;;;;;;20775635;28;20164;-45
2022/01/25 18:00:50;;;;;;;36.08;8.23;;;3.60;99.90;;;;;;20825414;28;20102;-45
2022/01/25 18:10:51;;;;;;;21.67;7.68;;;3.60;99.90;;;;;;20818023;28;20048;-45
2022/01/25 18:20:51;;;;;;;29.17;7.50;;;3.70;99.90;;;;;;20759011;28;20061;-45
2022/01/25 18:30:54;;;;;;;26.17;8.30;;;3.70;99.90;;;;;;20789092;28;20030;-45
2022/01/25 18:40:55;;;;;;;29.17;8.48;;;3.70;99.90;;;;;;20793440;28;20049;-45
2022/01/25 18:50:56;;;;;;;26.17;9.38;;;3.70;99.90;;;;;;20786032;28;20037;-45
2022/01/25 19:00:57;;;;;;;30.38;8.27;;;3.70;99.90;;;;;;20835571;28;20056;-45
2022/01/25 19:10:58;;;;;;;29.88;9.68;;;3.70;99.90;;;;;;20814275;28;20140;-45
2022/01/25 19:20:59;;;;;;;23.02;6.35;;;3.70;99.90;;;;;;20770405;28;20117;-45
2022/01/25 19:31:00;;;;;;;30.52;9.02;;;3.60;99.90;;;;;;20852110;28;20049;-45
2022/01/25 19:41:02;;;;;;;32.97;8.55;;;3.60;99.90;;;;;;20840734;28;20083;-45
2022/01/25 19:51:06;;;;;;;25.83;7.35;;;3.60;99.90;;;;;;20769736;28;20033;-45
2022/01/25 20:01:09;;;;;;;24.85;7.65;;;3.60;99.90;;;;;;20788338;28;20054;-45
2022/01/25 20:11:09;;;;;;;28.48;6.10;;;3.60;99.90;;;;;;20827786;28;20040;-45
2022/01/25 20:21:16;;;;;;;23.85;5.57;;;3.50;99.90;;;;;;20757577;28;20053;-45
2022/01/25 20:31:19;;;;;;;24.38;5.93;;;3.50;99.90;;;;;;20830182;28;20176;-45
2022/01/25 20:41:20;;;;;;;22.33;5.13;;;3.60;99.90;;;;;;20819123;28;20128;-45
2022/01/25 20:51:21;;;;;;;22.38;7.25;;;3.50;99.90;;;;;;20756649;28;20048;-45
2022/01/25 21:01:29;;;;;;;21.17;6.53;;;3.50;99.90;;;;;;20813813;28;20037;-45
2022/01/25 21:11:30;;;;;;;20.23;6.45;;;3.40;99.90;;;;;;20814392;28;20304;-45
2022/01/25 21:21:33;;;;;;;28.27;7.18;;;3.30;99.90;;;;;;20813028;28;20106;-45
2022/01/25 21:31:34;;;;;;;20.25;8.68;;;3.40;99.90;;;;;;20814702;28;20326;-45
2022/01/25 21:41:35;;;;;;;26.27;7.13;;;3.40;99.90;;;;;;20838056;28;20068;-45
2022/01/25 21:51:35;;;;;;;28.83;7.30;;;3.40;99.90;;;;;;20803172;28;20049;-45
2022/01/25 22:01:37;;;;;;;28.30;10.27;;;3.40;99.90;;;;;;20821225;28;20049;-45
2022/01/25 22:11:45;;;;;;;24.55;8.35;;;3.40;99.90;;;;;;20816006;28;20045;-45
2022/01/25 22:21:46;;;;;;;23.17;7.88;;;3.50;99.90;;;;;;20795455;28;20441;-45
2022/01/25 22:31:47;;;;;;;19.98;6.57;;;3.40;99.90;;;;;;20796556;28;20852;-45
2022/01/25 22:41:47;;;;;;;35.15;9.20;;;3.50;99.90;;;;;;20805172;28;20507;-45
2022/01/25 22:51:48;;;;;;;32.63;9.48;;;3.50;99.90;;;;;;20807193;28;20106;-45
2022/01/25 23:02:16;;;;;;;26.25;9.75;;;3.50;99.90;;;;;;20778295;28;20053;-45
2022/01/25 23:12:32;;;;;;;21.70;9.38;;;3.50;99.90;;;;;;20794496;28;20559;-45
2022/01/25 23:22:33;;;;;;;33.10;8.02;;;3.50;99.90;;;;;;20812783;28;20056;-45
2022/01/25 23:43:04;;;;;;;30.23;9.60;;;3.50;99.90;;;;;;20781383;28;20100;-45
